sensor_id;sensor_type;location;lat;lon;timestamp;temperature;humidity
20483;DHT22;10400;53.198;6.592;2023-03-03T00:01:28;3.70;99.90
20483;DHT22;10400;53.198;6.592;2023-03-03T00:03:55;3.70;99.90
20483;DHT22;10400;53.198;6.592;2023-03-03T00:06:20;3.60;99.90
20483;DHT22;10400;53.198;6.592;2023-03-03T00:08:46;3.60;99.90
20483;DHT22;10400;53.198;6.592;2023-03-03T00:11:12;3.60;99.90
20483;DHT22;10400;53.198;6.592;2023-03-03T00:13:47;3.60;99.90
20483;DHT22;10400;53.198;6.592;2023-03-03T00:16:23;3.70;99.90
20483;DHT22;10400;53.198;6.592;2023-03-03T00:18:49;3.70;99.90
20483;DHT22;10400;53.198;6.592;2023-03-03T00:21:39;3.70;99.90
20483;DHT22;10400;53.198;6.592;2023-03-03T00:24:22;3.70;99.90
20483;DHT22;10400;53.198;6.592;2023-03-03T00:26:51;3.70;99.90
20483;DHT22;10400;53.198;6.592;2023-03-03T00:29:37;3.60;99.90
20483;DHT22;10400;53.198;6.592;2023-03-03T00:34:36;3.60;99.90
20483;DHT22;10400;53.198;6.592;2023-03-03T00:37:03;3.60;99.90
20483;DHT22;10400;53.198;6.592;2023-03-03T00:39:36;3.60;99.90
20483;DHT22;10400;53.198;6.592;2023-03-03T00:42:15;3.50;99.90
20483;DHT22;10400;53.198;6.592;2023-03-03T00:47:35;3.50;99.90
20483;DHT22;10400;53.198;6.592;2023-03-03T00:52:34;3.50;99.90
20483;DHT22;10400;53.198;6.592;2023-03-03T00:55:00;3.50;99.90
20483;DHT22;10400;53.198;6.592;2023-03-03T00:57:26;3.40;99.90
20483;DHT22;10400;53.198;6.592;2023-03-03T00:59:52;3.30;99.90
20483;DHT22;10400;53.198;6.592;2023-03-03T01:02:18;3.30;99.90
20483;DHT22;10400;53.198;6.592;2023-03-03T01:04:50;3.10;99.90
20483;DHT22;10400;53.198;6.592;2023-03-03T01:07:16;3.30;99.90
20483;DHT22;10400;53.198;6.592;2023-03-03T01:09:42;3.20;99.90
20483;DHT22;10400;53.198;6.592;2023-03-03T01:12:08;3.20;99.90
20483;DHT22;10400;53.198;6.592;2023-03-03T01:14:34;3.20;99.90
20483;DHT22;10400;53.198;6.592;2023-03-03T01:17:00;3.20;99.90
20483;DHT22;10400;53.198;6.592;2023-03-03T01:19:26;3.30;99.90
20483;DHT22;10400;53.198;6.592;2023-03-03T01:21:52;3.30;99.90
20483;DHT22;10400;53.198;6.592;2023-03-03T01:24:17;3.20;99.90
20483;DHT22;10400;53.198;6.592;2023-03-03T01:26:43;3.20;99.90
20483;DHT22;10400;53.198;6.592;2023-03-03T01:29:08;3.20;99.90
20483;DHT22;10400;53.198;6.592;2023-03-03T01:31:34;3.20;99.90
20483;DHT22;10400;53.198;6.592;2023-03-03T01:34:00;3.20;99.90
20483;DHT22;10400;53.198;6.592;2023-03-03T01:36:27;3.20;99.90
20483;DHT22;10400;53.198;6.592;2023-03-03T01:38:53;3.20;99.90
20483;DHT22;10400;53.198;6.592;2023-03-03T01:41:19;3.30;99.90
20483;DHT22;10400;53.198;6.592;2023-03-03T01:43:49;3.30;99.90
20483;DHT22;10400;53.198;6.592;2023-03-03T01:46:39;3.20;99.90
20483;DHT22;10400;53.198;6.592;2023-03-03T01:49:16;3.20;99.90
20483;DHT22;10400;53.198;6.592;2023-03-03T01:51:52;3.20;99.90
20483;DHT22;10400;53.198;6.592;2023-03-03T01:54:23;3.20;99.90
20483;DHT22;10400;53.198;6.592;2023-03-03T01:56:51;3.30;99.90
20483;DHT22;10400;53.198;6.592;2023-03-03T01:59:25;3.30;99.90
20483;DHT22;10400;53.198;6.592;2023-03-03T02:01:52;3.30;99.90
20483;DHT22;10400;53.198;6.592;2023-03-03T02:04:18;3.30;99.90
20483;DHT22;10400;53.198;6.592;2023-03-03T02:06:51;3.30;99.90
20483;DHT22;10400;53.198;6.592;2023-03-03T02:09:30;3.30;99.90
20483;DHT22;10400;53.198;6.592;2023-03-03T02:12:00;3.30;99.90
20483;DHT22;10400;53.198;6.592;2023-03-03T02:14:27;3.30;99.90
20483;DHT22;10400;53.198;6.592;2023-03-03T02:16:52;3.20;99.90
20483;DHT22;10400;53.198;6.592;2023-03-03T02:21:49;3.00;99.90
20483;DHT22;10400;53.198;6.592;2023-03-03T02:26:49;3.00;99.90
20483;DHT22;10400;53.198;6.592;2023-03-03T02:29:15;2.90;99.90
20483;DHT22;10400;53.198;6.592;2023-03-03T02:31:40;2.90;99.90
20483;DHT22;10400;53.198;6.592;2023-03-03T02:34:07;2.70;99.90
20483;DHT22;10400;53.198;6.592;2023-03-03T02:36:37;2.70;99.90
20483;DHT22;10400;53.198;6.592;2023-03-03T02:39:17;2.70;99.90
20483;DHT22;10400;53.198;6.592;2023-03-03T02:41:57;2.70;99.90
20483;DHT22;10400;53.198;6.592;2023-03-03T02:44:26;2.60;99.90
20483;DHT22;10400;53.198;6.592;2023-03-03T02:46:53;2.60;99.90
20483;DHT22;10400;53.198;6.592;2023-03-03T02:49:25;2.60;99.90
20483;DHT22;10400;53.198;6.592;2023-03-03T02:51:51;2.50;99.90
20483;DHT22;10400;53.198;6.592;2023-03-03T02:54:18;2.50;99.90
20483;DHT22;10400;53.198;6.592;2023-03-03T02:56:44;2.40;99.90
20483;DHT22;10400;53.198;6.592;2023-03-03T02:59:10;2.40;99.90
20483;DHT22;10400;53.198;6.592;2023-03-03T03:01:36;2.40;99.90
20483;DHT22;10400;53.198;6.592;2023-03-03T03:04:19;2.30;99.90
20483;DHT22;10400;53.198;6.592;2023-03-03T03:06:45;2.30;99.90
20483;DHT22;10400;53.198;6.592;2023-03-03T03:09:12;2.20;99.90
20483;DHT22;10400;53.198;6.592;2023-03-03T03:11:39;2.20;99.90
20483;DHT22;10400;53.198;6.592;2023-03-03T03:14:06;2.20;99.90
20483;DHT22;10400;53.198;6.592;2023-03-03T03:16:32;2.10;99.90
20483;DHT22;10400;53.198;6.592;2023-03-03T03:18:59;2.10;99.90
20483;DHT22;10400;53.198;6.592;2023-03-03T03:21:25;2.00;99.90
20483;DHT22;10400;53.198;6.592;2023-03-03T03:23:50;2.00;99.90
20483;DHT22;10400;53.198;6.592;2023-03-03T03:26:16;2.00;99.90
20483;DHT22;10400;53.198;6.592;2023-03-03T03:28:42;2.00;99.90
20483;DHT22;10400;53.198;6.592;2023-03-03T03:31:09;1.90;99.90
20483;DHT22;10400;53.198;6.592;2023-03-03T03:33:35;1.90;99.90
20483;DHT22;10400;53.198;6.592;2023-03-03T03:36:02;1.90;99.90
20483;DHT22;10400;53.198;6.592;2023-03-03T03:38:29;1.90;99.90
20483;DHT22;10400;53.198;6.592;2023-03-03T03:40:56;1.90;99.90
20483;DHT22;10400;53.198;6.592;2023-03-03T03:43:22;1.80;99.90
20483;DHT22;10400;53.198;6.592;2023-03-03T03:45:48;1.80;99.90
20483;DHT22;10400;53.198;6.592;2023-03-03T03:48:13;1.80;99.90
20483;DHT22;10400;53.198;6.592;2023-03-03T03:50:40;1.60;99.90
20483;DHT22;10400;53.198;6.592;2023-03-03T03:53:06;1.70;99.90
20483;DHT22;10400;53.198;6.592;2023-03-03T03:55:32;1.60;99.90
20483;DHT22;10400;53.198;6.592;2023-03-03T03:57:58;1.60;99.90
20483;DHT22;10400;53.198;6.592;2023-03-03T04:00:24;1.60;99.90
20483;DHT22;10400;53.198;6.592;2023-03-03T04:02:49;1.60;99.90
20483;DHT22;10400;53.198;6.592;2023-03-03T04:05:15;1.60;99.90
20483;DHT22;10400;53.198;6.592;2023-03-03T04:07:41;1.60;99.90
20483;DHT22;10400;53.198;6.592;2023-03-03T04:10:08;1.50;99.90
20483;DHT22;10400;53.198;6.592;2023-03-03T04:12:33;1.40;99.90
20483;DHT22;10400;53.198;6.592;2023-03-03T04:15:12;1.40;99.90
20483;DHT22;10400;53.198;6.592;2023-03-03T04:17:38;1.40;99.90
20483;DHT22;10400;53.198;6.592;2023-03-03T04:20:05;1.50;99.90
20483;DHT22;10400;53.198;6.592;2023-03-03T04:22:32;1.50;99.90
20483;DHT22;10400;53.198;6.592;2023-03-03T04:25:02;1.50;99.90
20483;DHT22;10400;53.198;6.592;2023-03-03T04:27:33;1.40;99.90
20483;DHT22;10400;53.198;6.592;2023-03-03T04:29:59;1.40;99.90
20483;DHT22;10400;53.198;6.592;2023-03-03T04:32:25;1.40;99.90
20483;DHT22;10400;53.198;6.592;2023-03-03T04:34:51;1.40;99.90
20483;DHT22;10400;53.198;6.592;2023-03-03T04:37:16;1.40;99.90
20483;DHT22;10400;53.198;6.592;2023-03-03T04:39:42;1.40;99.90
20483;DHT22;10400;53.198;6.592;2023-03-03T04:42:08;1.30;99.90
20483;DHT22;10400;53.198;6.592;2023-03-03T04:44:33;1.40;99.90
20483;DHT22;10400;53.198;6.592;2023-03-03T04:46:59;1.40;99.90
20483;DHT22;10400;53.198;6.592;2023-03-03T04:49:25;1.30;99.90
20483;DHT22;10400;53.198;6.592;2023-03-03T04:51:51;1.30;99.90
20483;DHT22;10400;53.198;6.592;2023-03-03T04:54:16;1.30;99.90
20483;DHT22;10400;53.198;6.592;2023-03-03T04:56:42;1.30;99.90
20483;DHT22;10400;53.198;6.592;2023-03-03T04:59:08;1.30;99.90
20483;DHT22;10400;53.198;6.592;2023-03-03T05:01:33;1.30;99.90
20483;DHT22;10400;53.198;6.592;2023-03-03T05:03:59;1.30;99.90
20483;DHT22;10400;53.198;6.592;2023-03-03T05:06:25;1.30;99.90
20483;DHT22;10400;53.198;6.592;2023-03-03T05:08:50;1.30;99.90
20483;DHT22;10400;53.198;6.592;2023-03-03T05:11:16;1.20;99.90
20483;DHT22;10400;53.198;6.592;2023-03-03T05:13:42;1.30;99.90
20483;DHT22;10400;53.198;6.592;2023-03-03T05:16:08;1.30;99.90
20483;DHT22;10400;53.198;6.592;2023-03-03T05:18:34;1.30;99.90
20483;DHT22;10400;53.198;6.592;2023-03-03T05:20:59;1.30;99.90
20483;DHT22;10400;53.198;6.592;2023-03-03T05:23:25;1.30;99.90
20483;DHT22;10400;53.198;6.592;2023-03-03T05:25:51;1.30;99.90
20483;DHT22;10400;53.198;6.592;2023-03-03T05:28:17;1.30;99.90
20483;DHT22;10400;53.198;6.592;2023-03-03T05:30:43;1.30;99.90
20483;DHT22;10400;53.198;6.592;2023-03-03T05:33:12;1.20;99.90
20483;DHT22;10400;53.198;6.592;2023-03-03T05:35:38;1.20;99.90
20483;DHT22;10400;53.198;6.592;2023-03-03T05:38:04;1.20;99.90
20483;DHT22;10400;53.198;6.592;2023-03-03T05:40:30;1.20;99.90
20483;DHT22;10400;53.198;6.592;2023-03-03T05:42:55;1.20;99.90
20483;DHT22;10400;53.198;6.592;2023-03-03T05:45:21;1.20;99.90
20483;DHT22;10400;53.198;6.592;2023-03-03T05:47:49;1.20;99.90
20483;DHT22;10400;53.198;6.592;2023-03-03T05:50:16;1.10;99.90
20483;DHT22;10400;53.198;6.592;2023-03-03T05:52:42;1.10;99.90
20483;DHT22;10400;53.198;6.592;2023-03-03T05:55:08;1.10;99.90
20483;DHT22;10400;53.198;6.592;2023-03-03T05:57:34;1.10;99.90
20483;DHT22;10400;53.198;6.592;2023-03-03T06:00:01;1.10;99.90
20483;DHT22;10400;53.198;6.592;2023-03-03T06:02:27;1.10;99.90
20483;DHT22;10400;53.198;6.592;2023-03-03T06:04:53;1.10;99.90
20483;DHT22;10400;53.198;6.592;2023-03-03T06:07:18;1.10;99.90
20483;DHT22;10400;53.198;6.592;2023-03-03T06:09:44;1.00;99.90
20483;DHT22;10400;53.198;6.592;2023-03-03T06:12:10;1.00;99.90
20483;DHT22;10400;53.198;6.592;2023-03-03T06:14:35;1.00;99.90
20483;DHT22;10400;53.198;6.592;2023-03-03T06:17:01;1.00;99.90
20483;DHT22;10400;53.198;6.592;2023-03-03T06:19:27;1.00;99.90
20483;DHT22;10400;53.198;6.592;2023-03-03T06:21:52;1.00;99.90
20483;DHT22;10400;53.198;6.592;2023-03-03T06:24:18;1.00;99.90
20483;DHT22;10400;53.198;6.592;2023-03-03T06:26:44;1.00;99.90
20483;DHT22;10400;53.198;6.592;2023-03-03T06:29:09;1.00;99.90
20483;DHT22;10400;53.198;6.592;2023-03-03T06:31:35;1.00;99.90
20483;DHT22;10400;53.198;6.592;2023-03-03T06:34:01;1.00;99.90
20483;DHT22;10400;53.198;6.592;2023-03-03T06:36:27;1.00;99.90
20483;DHT22;10400;53.198;6.592;2023-03-03T06:38:52;1.00;99.90
20483;DHT22;10400;53.198;6.592;2023-03-03T06:41:18;1.00;99.90
20483;DHT22;10400;53.198;6.592;2023-03-03T06:43:44;1.10;99.90
20483;DHT22;10400;53.198;6.592;2023-03-03T06:46:09;1.10;99.90
20483;DHT22;10400;53.198;6.592;2023-03-03T06:48:35;1.10;99.90
20483;DHT22;10400;53.198;6.592;2023-03-03T06:51:02;1.20;99.90
20483;DHT22;10400;53.198;6.592;2023-03-03T06:53:34;1.20;99.90
20483;DHT22;10400;53.198;6.592;2023-03-03T06:56:01;1.30;99.90
20483;DHT22;10400;53.198;6.592;2023-03-03T06:58:26;1.40;99.90
20483;DHT22;10400;53.198;6.592;2023-03-03T07:00:59;1.50;99.90
20483;DHT22;10400;53.198;6.592;2023-03-03T07:03:32;1.50;99.90
20483;DHT22;10400;53.198;6.592;2023-03-03T07:05:58;1.50;99.90
20483;DHT22;10400;53.198;6.592;2023-03-03T07:08:25;1.50;99.90
20483;DHT22;10400;53.198;6.592;2023-03-03T07:10:53;1.50;99.90
20483;DHT22;10400;53.198;6.592;2023-03-03T07:13:21;1.50;99.90
20483;DHT22;10400;53.198;6.592;2023-03-03T07:15:49;1.60;99.90
20483;DHT22;10400;53.198;6.592;2023-03-03T07:21:24;1.70;99.90
20483;DHT22;10400;53.198;6.592;2023-03-03T07:23:52;1.90;99.90
20483;DHT22;10400;53.198;6.592;2023-03-03T07:26:24;1.90;99.90
20483;DHT22;10400;53.198;6.592;2023-03-03T07:28:59;2.20;99.90
20483;DHT22;10400;53.198;6.592;2023-03-03T07:31:29;2.30;99.90
20483;DHT22;10400;53.198;6.592;2023-03-03T07:33:57;2.50;99.90
20483;DHT22;10400;53.198;6.592;2023-03-03T07:36:34;2.70;99.90
20483;DHT22;10400;53.198;6.592;2023-03-03T07:39:03;2.70;99.90
20483;DHT22;10400;53.198;6.592;2023-03-03T07:41:37;2.80;99.90
20483;DHT22;10400;53.198;6.592;2023-03-03T07:44:15;2.80;99.90
20483;DHT22;10400;53.198;6.592;2023-03-03T07:46:46;2.80;99.90
20483;DHT22;10400;53.198;6.592;2023-03-03T07:49:28;2.80;99.90
20483;DHT22;10400;53.198;6.592;2023-03-03T07:51:56;2.80;99.90
20483;DHT22;10400;53.198;6.592;2023-03-03T07:54:39;2.90;99.90
20483;DHT22;10400;53.198;6.592;2023-03-03T07:57:35;2.80;99.90
20483;DHT22;10400;53.198;6.592;2023-03-03T08:03:03;2.80;99.90
20483;DHT22;10400;53.198;6.592;2023-03-03T08:05:41;2.90;99.90
20483;DHT22;10400;53.198;6.592;2023-03-03T08:08:21;2.90;99.90
20483;DHT22;10400;53.198;6.592;2023-03-03T08:10:56;3.00;99.90
20483;DHT22;10400;53.198;6.592;2023-03-03T08:13:27;3.10;99.90
20483;DHT22;10400;53.198;6.592;2023-03-03T08:16:23;3.10;99.90
20483;DHT22;10400;53.198;6.592;2023-03-03T08:18:50;3.20;99.90
20483;DHT22;10400;53.198;6.592;2023-03-03T08:21:22;3.30;99.90
20483;DHT22;10400;53.198;6.592;2023-03-03T08:23:48;3.30;99.90
20483;DHT22;10400;53.198;6.592;2023-03-03T08:26:16;3.40;99.90
20483;DHT22;10400;53.198;6.592;2023-03-03T08:28:43;3.50;99.90
20483;DHT22;10400;53.198;6.592;2023-03-03T08:31:09;3.40;99.90
20483;DHT22;10400;53.198;6.592;2023-03-03T08:33:35;3.50;99.90
20483;DHT22;10400;53.198;6.592;2023-03-03T08:36:01;3.50;99.90
20483;DHT22;10400;53.198;6.592;2023-03-03T08:38:26;3.60;99.90
20483;DHT22;10400;53.198;6.592;2023-03-03T08:40:52;3.60;99.90
20483;DHT22;10400;53.198;6.592;2023-03-03T08:43:18;3.70;99.90
20483;DHT22;10400;53.198;6.592;2023-03-03T08:45:48;3.80;99.90
20483;DHT22;10400;53.198;6.592;2023-03-03T08:48:15;3.70;99.90
20483;DHT22;10400;53.198;6.592;2023-03-03T08:50:41;3.80;99.90
20483;DHT22;10400;53.198;6.592;2023-03-03T08:53:07;3.80;99.90
20483;DHT22;10400;53.198;6.592;2023-03-03T08:55:33;3.80;99.90
20483;DHT22;10400;53.198;6.592;2023-03-03T08:57:59;4.00;99.90
20483;DHT22;10400;53.198;6.592;2023-03-03T09:00:24;4.00;99.90
20483;DHT22;10400;53.198;6.592;2023-03-03T09:02:52;4.10;99.90
20483;DHT22;10400;53.198;6.592;2023-03-03T09:05:19;4.10;99.90
20483;DHT22;10400;53.198;6.592;2023-03-03T09:07:46;4.20;99.90
20483;DHT22;10400;53.198;6.592;2023-03-03T09:10:15;4.20;99.90
20483;DHT22;10400;53.198;6.592;2023-03-03T09:12:43;4.30;99.90
20483;DHT22;10400;53.198;6.592;2023-03-03T09:15:18;4.30;99.90
20483;DHT22;10400;53.198;6.592;2023-03-03T09:17:45;4.30;99.90
20483;DHT22;10400;53.198;6.592;2023-03-03T09:25:51;4.50;99.90
20483;DHT22;10400;53.198;6.592;2023-03-03T09:28:30;4.60;99.90
20483;DHT22;10400;53.198;6.592;2023-03-03T09:30:59;4.70;99.90
20483;DHT22;10400;53.198;6.592;2023-03-03T09:38:40;4.90;99.90
20483;DHT22;10400;53.198;6.592;2023-03-03T09:41:35;5.00;99.90
20483;DHT22;10400;53.198;6.592;2023-03-03T09:55:31;5.40;99.90
20483;DHT22;10400;53.198;6.592;2023-03-03T09:59:01;5.50;99.90
20483;DHT22;10400;53.198;6.592;2023-03-03T10:12:58;5.90;90.00
20483;DHT22;10400;53.198;6.592;2023-03-03T10:24:12;6.40;70.80
20483;DHT22;10400;53.198;6.592;2023-03-03T10:38:30;6.70;32.50
20483;DHT22;10400;53.198;6.592;2023-03-03T10:40:49;6.80;25.70
20483;DHT22;10400;53.198;6.592;2023-03-03T11:05:54;7.40;1.00
20483;DHT22;10400;53.198;6.592;2023-03-03T11:20:19;7.70;1.00
20483;DHT22;10400;53.198;6.592;2023-03-03T11:22:50;7.60;1.00
20483;DHT22;10400;53.198;6.592;2023-03-03T11:25:30;7.50;1.00
20483;DHT22;10400;53.198;6.592;2023-03-03T11:28:04;7.60;1.00
20483;DHT22;10400;53.198;6.592;2023-03-03T11:36:20;7.90;99.90
20483;DHT22;10400;53.198;6.592;2023-03-03T11:38:58;7.70;1.00
20483;DHT22;10400;53.198;6.592;2023-03-03T11:44:43;7.60;1.00
20483;DHT22;10400;53.198;6.592;2023-03-03T11:47:24;7.60;1.00
20483;DHT22;10400;53.198;6.592;2023-03-03T11:50:19;7.50;1.00
20483;DHT22;10400;53.198;6.592;2023-03-03T11:53:05;7.50;1.00
20483;DHT22;10400;53.198;6.592;2023-03-03T11:55:37;7.40;99.90
20483;DHT22;10400;53.198;6.592;2023-03-03T12:00:53;7.50;99.90
20483;DHT22;10400;53.198;6.592;2023-03-03T12:04:03;7.90;99.90
20483;DHT22;10400;53.198;6.592;2023-03-03T12:09:28;8.20;87.10
20483;DHT22;10400;53.198;6.592;2023-03-03T12:12:20;8.30;99.90
20483;DHT22;10400;53.198;6.592;2023-03-03T12:23:00;8.40;99.90
20483;DHT22;10400;53.198;6.592;2023-03-03T12:25:35;8.20;99.90
20483;DHT22;10400;53.198;6.592;2023-03-03T12:28:22;8.30;99.90
20483;DHT22;10400;53.198;6.592;2023-03-03T12:33:56;8.30;99.90
20483;DHT22;10400;53.198;6.592;2023-03-03T12:36:46;8.20;99.90
20483;DHT22;10400;53.198;6.592;2023-03-03T12:56:12;8.20;99.90
20483;DHT22;10400;53.198;6.592;2023-03-03T12:59:06;8.00;99.90
20483;DHT22;10400;53.198;6.592;2023-03-03T13:09:27;8.40;99.90
20483;DHT22;10400;53.198;6.592;2023-03-03T13:12:23;8.50;99.90
20483;DHT22;10400;53.198;6.592;2023-03-03T13:17:55;8.80;50.80
20483;DHT22;10400;53.198;6.592;2023-03-03T13:23:06;8.80;1.00
20483;DHT22;10400;53.198;6.592;2023-03-03T13:25:48;8.80;1.00
20483;DHT22;10400;53.198;6.592;2023-03-03T13:28:35;8.60;1.00
20483;DHT22;10400;53.198;6.592;2023-03-03T13:31:20;8.60;68.90
20483;DHT22;10400;53.198;6.592;2023-03-03T13:33:57;8.70;99.90
20483;DHT22;10400;53.198;6.592;2023-03-03T13:36:33;8.60;99.90
20483;DHT22;10400;53.198;6.592;2023-03-03T13:39:05;8.40;99.90
20483;DHT22;10400;53.198;6.592;2023-03-03T13:42:13;8.30;99.90
20483;DHT22;10400;53.198;6.592;2023-03-03T13:44:41;8.40;99.90
20483;DHT22;10400;53.198;6.592;2023-03-03T13:56:11;8.30;99.90
20483;DHT22;10400;53.198;6.592;2023-03-03T14:02:18;8.20;99.90
20483;DHT22;10400;53.198;6.592;2023-03-03T14:07:37;8.20;99.90
20483;DHT22;10400;53.198;6.592;2023-03-03T14:10:15;8.20;99.90
20483;DHT22;10400;53.198;6.592;2023-03-03T14:15:52;8.40;99.90
20483;DHT22;10400;53.198;6.592;2023-03-03T14:20:59;8.40;99.90
20483;DHT22;10400;53.198;6.592;2023-03-03T14:26:13;8.10;99.90
20483;DHT22;10400;53.198;6.592;2023-03-03T14:28:45;8.10;99.90
20483;DHT22;10400;53.198;6.592;2023-03-03T14:31:28;8.00;99.90
20483;DHT22;10400;53.198;6.592;2023-03-03T14:34:02;7.90;1.00
20483;DHT22;10400;53.198;6.592;2023-03-03T14:36:35;7.90;1.00
20483;DHT22;10400;53.198;6.592;2023-03-03T14:39:01;7.90;1.00
20483;DHT22;10400;53.198;6.592;2023-03-03T14:41:40;8.10;1.00
20483;DHT22;10400;53.198;6.592;2023-03-03T14:49:34;8.10;1.00
20483;DHT22;10400;53.198;6.592;2023-03-03T14:52:02;8.10;1.00
20483;DHT22;10400;53.198;6.592;2023-03-03T14:54:41;8.20;1.00
20483;DHT22;10400;53.198;6.592;2023-03-03T14:57:15;8.10;99.90
20483;DHT22;10400;53.198;6.592;2023-03-03T14:59:59;8.00;1.00
20483;DHT22;10400;53.198;6.592;2023-03-03T15:02:35;7.90;1.00
20483;DHT22;10400;53.198;6.592;2023-03-03T15:05:16;7.90;1.00
20483;DHT22;10400;53.198;6.592;2023-03-03T15:07:42;7.80;1.00
20483;DHT22;10400;53.198;6.592;2023-03-03T15:10:09;7.80;1.00
20483;DHT22;10400;53.198;6.592;2023-03-03T15:12:37;7.80;1.00
20483;DHT22;10400;53.198;6.592;2023-03-03T15:17:43;7.90;1.00
20483;DHT22;10400;53.198;6.592;2023-03-03T15:20:45;7.90;1.00
20483;DHT22;10400;53.198;6.592;2023-03-03T15:23:18;7.90;1.00
20483;DHT22;10400;53.198;6.592;2023-03-03T15:28:35;7.70;1.00
20483;DHT22;10400;53.198;6.592;2023-03-03T15:34:31;7.70;1.00
20483;DHT22;10400;53.198;6.592;2023-03-03T15:42:23;7.70;1.00
20483;DHT22;10400;53.198;6.592;2023-03-03T15:53:09;7.60;1.00
20483;DHT22;10400;53.198;6.592;2023-03-03T15:55:54;7.60;1.00
20483;DHT22;10400;53.198;6.592;2023-03-03T16:01:28;7.60;1.00
20483;DHT22;10400;53.198;6.592;2023-03-03T16:04:14;7.60;1.00
20483;DHT22;10400;53.198;6.592;2023-03-03T16:12:30;7.60;1.00
20483;DHT22;10400;53.198;6.592;2023-03-03T16:15:14;7.60;1.00
20483;DHT22;10400;53.198;6.592;2023-03-03T16:23:30;7.70;1.00
20483;DHT22;10400;53.198;6.592;2023-03-03T16:26:17;7.70;1.00
20483;DHT22;10400;53.198;6.592;2023-03-03T16:34:54;7.60;1.00
20483;DHT22;10400;53.198;6.592;2023-03-03T16:37:53;7.50;1.00
20483;DHT22;10400;53.198;6.592;2023-03-03T16:40:28;7.50;1.00
20483;DHT22;10400;53.198;6.592;2023-03-03T16:46:31;7.50;1.00
20483;DHT22;10400;53.198;6.592;2023-03-03T16:49:06;7.50;1.00
20483;DHT22;10400;53.198;6.592;2023-03-03T16:52:06;7.50;1.00
20483;DHT22;10400;53.198;6.592;2023-03-03T16:54:49;7.30;1.00
20483;DHT22;10400;53.198;6.592;2023-03-03T17:03:20;7.20;1.00
20483;DHT22;10400;53.198;6.592;2023-03-03T17:06:15;7.20;1.00
20483;DHT22;10400;53.198;6.592;2023-03-03T17:16:59;7.10;1.00
20483;DHT22;10400;53.198;6.592;2023-03-03T17:22:40;7.20;1.00
20483;DHT22;10400;53.198;6.592;2023-03-03T17:30:44;7.10;1.00
20483;DHT22;10400;53.198;6.592;2023-03-03T17:41:12;7.10;1.00
20483;DHT22;10400;53.198;6.592;2023-03-03T17:49:16;7.10;1.00
20483;DHT22;10400;53.198;6.592;2023-03-03T17:54:48;7.10;1.00
20483;DHT22;10400;53.198;6.592;2023-03-03T18:02:51;7.10;1.00
20483;DHT22;10400;53.198;6.592;2023-03-03T18:05:32;7.10;1.00
20483;DHT22;10400;53.198;6.592;2023-03-03T18:11:07;7.10;1.00
20483;DHT22;10400;53.198;6.592;2023-03-03T18:22:12;7.00;1.00
20483;DHT22;10400;53.198;6.592;2023-03-03T18:27:36;7.10;1.00
20483;DHT22;10400;53.198;6.592;2023-03-03T18:30:25;7.00;1.00
20483;DHT22;10400;53.198;6.592;2023-03-03T18:51:47;7.00;1.00
20483;DHT22;10400;53.198;6.592;2023-03-03T19:04:36;7.00;1.00
20483;DHT22;10400;53.198;6.592;2023-03-03T19:18:23;7.00;1.00
20483;DHT22;10400;53.198;6.592;2023-03-03T19:20:59;7.00;1.00
20483;DHT22;10400;53.198;6.592;2023-03-03T19:23:52;7.00;1.00
20483;DHT22;10400;53.198;6.592;2023-03-03T19:43:27;7.00;1.00
20483;DHT22;10400;53.198;6.592;2023-03-03T19:52:28;6.90;1.00
20483;DHT22;10400;53.198;6.592;2023-03-03T19:55:25;6.90;1.00
20483;DHT22;10400;53.198;6.592;2023-03-03T20:08:54;6.90;1.00
20483;DHT22;10400;53.198;6.592;2023-03-03T20:11:48;6.80;1.00
20483;DHT22;10400;53.198;6.592;2023-03-03T20:19:51;6.90;1.00
20483;DHT22;10400;53.198;6.592;2023-03-03T20:25:33;6.90;1.00
20483;DHT22;10400;53.198;6.592;2023-03-03T20:28:10;7.00;1.00
20483;DHT22;10400;53.198;6.592;2023-03-03T20:49:42;7.00;1.00
20483;DHT22;10400;53.198;6.592;2023-03-03T20:57:46;7.00;1.00
20483;DHT22;10400;53.198;6.592;2023-03-03T21:00:28;7.00;1.00
20483;DHT22;10400;53.198;6.592;2023-03-03T21:03:09;7.10;1.00
20483;DHT22;10400;53.198;6.592;2023-03-03T21:05:54;7.00;1.00
20483;DHT22;10400;53.198;6.592;2023-03-03T21:08:20;7.00;1.00
20483;DHT22;10400;53.198;6.592;2023-03-03T21:10:56;7.00;1.00
20483;DHT22;10400;53.198;6.592;2023-03-03T21:13:33;7.00;1.00
20483;DHT22;10400;53.198;6.592;2023-03-03T21:16:09;7.00;1.00
20483;DHT22;10400;53.198;6.592;2023-03-03T21:18:35;7.00;1.00
20483;DHT22;10400;53.198;6.592;2023-03-03T21:21:01;7.00;1.00
20483;DHT22;10400;53.198;6.592;2023-03-03T21:23:28;7.00;1.00
20483;DHT22;10400;53.198;6.592;2023-03-03T21:25:55;7.00;1.00
20483;DHT22;10400;53.198;6.592;2023-03-03T21:28:25;7.00;1.00
20483;DHT22;10400;53.198;6.592;2023-03-03T21:31:15;6.90;1.00
20483;DHT22;10400;53.198;6.592;2023-03-03T21:33:53;6.90;1.00
20483;DHT22;10400;53.198;6.592;2023-03-03T21:36:44;6.90;1.00
20483;DHT22;10400;53.198;6.592;2023-03-03T21:39:38;6.90;1.00
20483;DHT22;10400;53.198;6.592;2023-03-03T21:42:12;7.00;1.00
20483;DHT22;10400;53.198;6.592;2023-03-03T21:44:42;7.00;1.00
20483;DHT22;10400;53.198;6.592;2023-03-03T21:47:11;7.00;1.00
20483;DHT22;10400;53.198;6.592;2023-03-03T21:49:42;7.00;1.00
20483;DHT22;10400;53.198;6.592;2023-03-03T21:52:09;7.00;1.00
20483;DHT22;10400;53.198;6.592;2023-03-03T21:54:34;7.00;1.00
20483;DHT22;10400;53.198;6.592;2023-03-03T21:57:00;6.90;1.00
20483;DHT22;10400;53.198;6.592;2023-03-03T21:59:26;7.00;1.00
20483;DHT22;10400;53.198;6.592;2023-03-03T22:01:51;7.00;1.00
20483;DHT22;10400;53.198;6.592;2023-03-03T22:04:17;7.00;1.00
20483;DHT22;10400;53.198;6.592;2023-03-03T22:06:43;7.00;1.00
20483;DHT22;10400;53.198;6.592;2023-03-03T22:09:09;6.90;1.00
20483;DHT22;10400;53.198;6.592;2023-03-03T22:11:34;6.90;1.00
20483;DHT22;10400;53.198;6.592;2023-03-03T22:14:00;6.90;1.00
20483;DHT22;10400;53.198;6.592;2023-03-03T22:16:26;6.90;1.00
20483;DHT22;10400;53.198;6.592;2023-03-03T22:18:51;7.00;1.00
20483;DHT22;10400;53.198;6.592;2023-03-03T22:21:17;7.00;1.00
20483;DHT22;10400;53.198;6.592;2023-03-03T22:23:43;7.00;1.00
20483;DHT22;10400;53.198;6.592;2023-03-03T22:26:08;7.00;1.00
20483;DHT22;10400;53.198;6.592;2023-03-03T22:28:34;7.00;1.00
20483;DHT22;10400;53.198;6.592;2023-03-03T22:31:00;6.90;1.00
20483;DHT22;10400;53.198;6.592;2023-03-03T22:33:25;6.90;1.00
20483;DHT22;10400;53.198;6.592;2023-03-03T22:35:51;6.90;1.00
20483;DHT22;10400;53.198;6.592;2023-03-03T22:38:17;6.80;1.00
20483;DHT22;10400;53.198;6.592;2023-03-03T22:40:42;6.80;1.00
20483;DHT22;10400;53.198;6.592;2023-03-03T22:43:08;6.80;1.00
20483;DHT22;10400;53.198;6.592;2023-03-03T22:45:39;6.90;1.00
20483;DHT22;10400;53.198;6.592;2023-03-03T22:48:05;6.90;1.00
20483;DHT22;10400;53.198;6.592;2023-03-03T22:50:30;6.90;1.00
20483;DHT22;10400;53.198;6.592;2023-03-03T22:52:56;6.80;1.00
20483;DHT22;10400;53.198;6.592;2023-03-03T22:55:22;6.80;1.00
20483;DHT22;10400;53.198;6.592;2023-03-03T22:57:47;6.80;1.00
20483;DHT22;10400;53.198;6.592;2023-03-03T23:00:14;6.80;1.00
20483;DHT22;10400;53.198;6.592;2023-03-03T23:02:40;6.70;1.00
20483;DHT22;10400;53.198;6.592;2023-03-03T23:05:07;6.80;1.00